sensor_id;sensor_type;location;lat;lon;timestamp;P1;durP1;ratioP1;P2;durP2;ratioP2
59653;SDS011;66556;52.008;5.432;2023-05-10T00:00:14;72.11;;;40.81;;
59653;SDS011;66556;52.008;5.432;2023-05-10T00:01:51;64.41;;;38.5;;
59653;SDS011;66556;52.008;5.432;2023-05-10T00:03:27;56.3;;;35.6;;
59653;SDS011;66556;52.008;5.432;2023-05-10T00:06:40;57.0;;;35.21;;
59653;SDS011;66556;52.008;5.432;2023-05-10T00:08:16;57.6;;;35.81;;
59653;SDS011;66556;52.008;5.432;2023-05-10T00:09:52;75.61;;;42.9;;
59653;SDS011;66556;52.008;5.432;2023-05-10T00:11:29;82.7;;;44.1;;
59653;SDS011;66556;52.008;5.432;2023-05-10T00:14:41;57.6;;;39.0;;
59653;SDS011;66556;52.008;5.432;2023-05-10T00:16:17;53.9;;;36.71;;
59653;SDS011;66556;52.008;5.432;2023-05-10T00:17:53;66.5;;;41.0;;
59653;SDS011;66556;52.008;5.432;2023-05-10T00:21:05;84.8;;;46.3;;
59653;SDS011;66556;52.008;5.432;2023-05-10T00:22:41;87.7;;;46.5;;
59653;SDS011;66556;52.008;5.432;2023-05-10T00:24:18;67.91;;;42.5;;
59653;SDS011;66556;52.008;5.432;2023-05-10T00:27:30;48.6;;;36.0;;
59653;SDS011;66556;52.008;5.432;2023-05-10T00:29:06;90.6;;;47.5;;
59653;SDS011;66556;52.008;5.432;2023-05-10T00:30:42;79.11;;;45.8;;
59653;SDS011;66556;52.008;5.432;2023-05-10T00:33:55;64.0;;;41.6;;
59653;SDS011;66556;52.008;5.432;2023-05-10T00:35:31;47.4;;;36.21;;
59653;SDS011;66556;52.008;5.432;2023-05-10T00:37:08;59.2;;;38.9;;
59653;SDS011;66556;52.008;5.432;2023-05-10T00:38:44;57.5;;;38.31;;
59653;SDS011;66556;52.008;5.432;2023-05-10T00:41:56;61.0;;;39.1;;
59653;SDS011;66556;52.008;5.432;2023-05-10T00:43:32;55.6;;;37.0;;
59653;SDS011;66556;52.008;5.432;2023-05-10T00:45:08;69.3;;;41.1;;
59653;SDS011;66556;52.008;5.432;2023-05-10T00:48:20;81.91;;;44.5;;
59653;SDS011;66556;52.008;5.432;2023-05-10T00:49:58;68.2;;;39.4;;
59653;SDS011;66556;52.008;5.432;2023-05-10T00:51:34;64.5;;;38.6;;
59653;SDS011;66556;52.008;5.432;2023-05-10T00:54:46;71.3;;;39.31;;
59653;SDS011;66556;52.008;5.432;2023-05-10T00:56:22;62.0;;;38.71;;
59653;SDS011;66556;52.008;5.432;2023-05-10T00:57:59;75.0;;;40.5;;
59653;SDS011;66556;52.008;5.432;2023-05-10T00:59:35;54.3;;;35.31;;
59653;SDS011;66556;52.008;5.432;2023-05-10T01:02:49;57.6;;;35.6;;
59653;SDS011;66556;52.008;5.432;2023-05-10T01:04:25;56.6;;;35.81;;
59653;SDS011;66556;52.008;5.432;2023-05-10T01:06:01;61.1;;;37.0;;
59653;SDS011;66556;52.008;5.432;2023-05-10T01:09:13;55.0;;;34.31;;
59653;SDS011;66556;52.008;5.432;2023-05-10T01:10:49;55.0;;;34.31;;
59653;SDS011;66556;52.008;5.432;2023-05-10T01:12:25;48.5;;;32.8;;
59653;SDS011;66556;52.008;5.432;2023-05-10T01:15:39;78.41;;;40.0;;
59653;SDS011;66556;52.008;5.432;2023-05-10T01:17:16;49.1;;;33.21;;
59653;SDS011;66556;52.008;5.432;2023-05-10T01:18:53;87.2;;;42.0;;
59653;SDS011;66556;52.008;5.432;2023-05-10T01:20:32;60.4;;;36.71;;
59653;SDS011;66556;52.008;5.432;2023-05-10T01:26:07;74.61;;;41.1;;
59653;SDS011;66556;52.008;5.432;2023-05-10T01:28:07;80.41;;;43.8;;
59653;SDS011;66556;52.008;5.432;2023-05-10T01:30:01;74.91;;;42.5;;
59653;SDS011;66556;52.008;5.432;2023-05-10T01:32:00;65.41;;;39.21;;
59653;SDS011;66556;52.008;5.432;2023-05-10T01:33:52;63.4;;;39.31;;
59653;SDS011;66556;52.008;5.432;2023-05-10T01:35:33;91.5;;;46.7;;
59653;SDS011;66556;52.008;5.432;2023-05-10T01:37:20;74.8;;;43.8;;
59653;SDS011;66556;52.008;5.432;2023-05-10T01:40:48;102.7;;;49.0;;
59653;SDS011;66556;52.008;5.432;2023-05-10T01:42:38;98.8;;;49.9;;
59653;SDS011;66556;52.008;5.432;2023-05-10T01:44:24;89.8;;;47.2;;
59653;SDS011;66556;52.008;5.432;2023-05-10T01:46:10;112.6;;;51.4;;
59653;SDS011;66556;52.008;5.432;2023-05-10T01:47:54;112.6;;;51.4;;
59653;SDS011;66556;52.008;5.432;2023-05-10T01:51:20;78.11;;;46.1;;
59653;SDS011;66556;52.008;5.432;2023-05-10T01:53:00;91.9;;;48.9;;
59653;SDS011;66556;52.008;5.432;2023-05-10T01:54:38;82.5;;;46.8;;
59653;SDS011;66556;52.008;5.432;2023-05-10T01:56:19;102.9;;;52.8;;
59653;SDS011;66556;52.008;5.432;2023-05-10T01:59:41;68.8;;;44.1;;
59653;SDS011;66556;52.008;5.432;2023-05-10T02:01:21;89.5;;;48.2;;
59653;SDS011;66556;52.008;5.432;2023-05-10T02:02:58;112.0;;;53.3;;
59653;SDS011;66556;52.008;5.432;2023-05-10T02:04:39;108.2;;;51.2;;
59653;SDS011;66556;52.008;5.432;2023-05-10T02:07:57;95.9;;;49.5;;
59653;SDS011;66556;52.008;5.432;2023-05-10T02:09:35;94.0;;;49.9;;
59653;SDS011;66556;52.008;5.432;2023-05-10T02:11:14;72.3;;;44.1;;
59653;SDS011;66556;52.008;5.432;2023-05-10T02:16:10;115.7;;;52.9;;
59653;SDS011;66556;52.008;5.432;2023-05-10T02:17:50;85.6;;;48.7;;
59653;SDS011;66556;52.008;5.432;2023-05-10T02:19:29;77.11;;;48.1;;
59653;SDS011;66556;52.008;5.432;2023-05-10T02:22:45;85.4;;;49.3;;
59653;SDS011;66556;52.008;5.432;2023-05-10T02:24:25;85.6;;;46.6;;
59653;SDS011;66556;52.008;5.432;2023-05-10T02:26:02;93.1;;;51.3;;
59653;SDS011;66556;52.008;5.432;2023-05-10T02:27:39;96.7;;;49.7;;
59653;SDS011;66556;52.008;5.432;2023-05-10T02:30:55;98.7;;;52.7;;
59653;SDS011;66556;52.008;5.432;2023-05-10T02:32:32;87.9;;;48.1;;
59653;SDS011;66556;52.008;5.432;2023-05-10T02:34:10;107.6;;;54.4;;
59653;SDS011;66556;52.008;5.432;2023-05-10T02:35:49;93.4;;;50.2;;
59653;SDS011;66556;52.008;5.432;2023-05-10T02:39:04;95.2;;;50.5;;
59653;SDS011;66556;52.008;5.432;2023-05-10T02:40:42;99.5;;;53.9;;
59653;SDS011;66556;52.008;5.432;2023-05-10T02:42:22;96.7;;;52.2;;
59653;SDS011;66556;52.008;5.432;2023-05-10T02:45:43;92.3;;;49.7;;
59653;SDS011;66556;52.008;5.432;2023-05-10T02:47:23;77.3;;;47.5;;
59653;SDS011;66556;52.008;5.432;2023-05-10T02:48:59;75.61;;;47.5;;
59653;SDS011;66556;52.008;5.432;2023-05-10T02:50:36;90.7;;;50.8;;
59653;SDS011;66556;52.008;5.432;2023-05-10T02:54:00;75.8;;;48.1;;
59653;SDS011;66556;52.008;5.432;2023-05-10T02:55:57;86.8;;;50.6;;
59653;SDS011;66556;52.008;5.432;2023-05-10T02:57:38;96.7;;;54.6;;
59653;SDS011;66556;52.008;5.432;2023-05-10T02:59:17;99.0;;;56.1;;
59653;SDS011;66556;52.008;5.432;2023-05-10T03:02:29;86.7;;;53.3;;
59653;SDS011;66556;52.008;5.432;2023-05-10T03:04:05;95.3;;;53.7;;
59653;SDS011;66556;52.008;5.432;2023-05-10T03:05:43;86.1;;;51.9;;
59653;SDS011;66556;52.008;5.432;2023-05-10T03:07:19;95.7;;;55.5;;
59653;SDS011;66556;52.008;5.432;2023-05-10T03:10:31;81.91;;;51.8;;
59653;SDS011;66556;52.008;5.432;2023-05-10T03:12:14;94.2;;;54.2;;
59653;SDS011;66556;52.008;5.432;2023-05-10T03:14:09;106.6;;;57.6;;
59653;SDS011;66556;52.008;5.432;2023-05-10T03:15:53;105.5;;;58.1;;
59653;SDS011;66556;52.008;5.432;2023-05-10T03:19:24;124.1;;;60.1;;
59653;SDS011;66556;52.008;5.432;2023-05-10T03:21:07;92.8;;;52.6;;
59653;SDS011;66556;52.008;5.432;2023-05-10T03:22:46;107.8;;;57.9;;
59653;SDS011;66556;52.008;5.432;2023-05-10T03:24:27;95.7;;;53.9;;
59653;SDS011;66556;52.008;5.432;2023-05-10T03:26:04;94.3;;;52.8;;
59653;SDS011;66556;52.008;5.432;2023-05-10T03:29:20;104.5;;;55.7;;
59653;SDS011;66556;52.008;5.432;2023-05-10T03:30:59;87.2;;;49.5;;
59653;SDS011;66556;52.008;5.432;2023-05-10T03:32:35;94.1;;;52.1;;
59653;SDS011;66556;52.008;5.432;2023-05-10T03:35:47;85.8;;;48.7;;
59653;SDS011;66556;52.008;5.432;2023-05-10T03:37:23;102.0;;;52.6;;
59653;SDS011;66556;52.008;5.432;2023-05-10T03:38:59;94.2;;;52.0;;
59653;SDS011;66556;52.008;5.432;2023-05-10T03:42:11;122.0;;;57.3;;
59653;SDS011;66556;52.008;5.432;2023-05-10T03:43:48;111.6;;;54.9;;
59653;SDS011;66556;52.008;5.432;2023-05-10T03:45:24;104.2;;;53.5;;
59653;SDS011;66556;52.008;5.432;2023-05-10T03:47:00;77.3;;;46.2;;
59653;SDS011;66556;52.008;5.432;2023-05-10T03:50:13;103.1;;;53.1;;
59653;SDS011;66556;52.008;5.432;2023-05-10T03:51:49;95.3;;;51.0;;
59653;SDS011;66556;52.008;5.432;2023-05-10T03:53:25;93.4;;;49.8;;
59653;SDS011;66556;52.008;5.432;2023-05-10T03:56:38;98.1;;;50.9;;
59653;SDS011;66556;52.008;5.432;2023-05-10T03:58:14;79.0;;;45.7;;
59653;SDS011;66556;52.008;5.432;2023-05-10T04:03:03;106.1;;;50.1;;
59653;SDS011;66556;52.008;5.432;2023-05-10T04:04:39;101.3;;;49.4;;
59653;SDS011;66556;52.008;5.432;2023-05-10T04:06:17;92.2;;;46.5;;
59653;SDS011;66556;52.008;5.432;2023-05-10T04:13:13;96.7;;;46.1;;
59653;SDS011;66556;52.008;5.432;2023-05-10T04:14:49;81.61;;;42.0;;
59653;SDS011;66556;52.008;5.432;2023-05-10T04:16:25;79.91;;;42.9;;
59653;SDS011;66556;52.008;5.432;2023-05-10T04:19:38;99.3;;;46.5;;
59653;SDS011;66556;52.008;5.432;2023-05-10T04:21:14;80.61;;;41.4;;
59653;SDS011;66556;52.008;5.432;2023-05-10T04:22:50;108.7;;;49.3;;
59653;SDS011;66556;52.008;5.432;2023-05-10T04:26:02;95.7;;;44.2;;
59653;SDS011;66556;52.008;5.432;2023-05-10T04:27:38;104.7;;;46.8;;
59653;SDS011;66556;52.008;5.432;2023-05-10T04:29:14;97.4;;;46.6;;
59653;SDS011;66556;52.008;5.432;2023-05-10T04:32:27;86.3;;;44.6;;
59653;SDS011;66556;52.008;5.432;2023-05-10T04:35:39;109.7;;;49.1;;
59653;SDS011;66556;52.008;5.432;2023-05-10T04:37:15;120.3;;;50.3;;
59653;SDS011;66556;52.008;5.432;2023-05-10T04:40:27;103.2;;;47.6;;
59653;SDS011;66556;52.008;5.432;2023-05-10T04:42:03;84.9;;;44.3;;
59653;SDS011;66556;52.008;5.432;2023-05-10T04:43:39;87.0;;;44.9;;
59653;SDS011;66556;52.008;5.432;2023-05-10T04:46:52;93.1;;;46.5;;
59653;SDS011;66556;52.008;5.432;2023-05-10T04:48:28;75.0;;;42.8;;
59653;SDS011;66556;52.008;5.432;2023-05-10T04:50:05;94.0;;;47.0;;
59653;SDS011;66556;52.008;5.432;2023-05-10T04:53:18;112.3;;;51.4;;
59653;SDS011;66556;52.008;5.432;2023-05-10T04:54:54;99.6;;;48.2;;
59653;SDS011;66556;52.008;5.432;2023-05-10T04:56:31;115.1;;;52.3;;
59653;SDS011;66556;52.008;5.432;2023-05-10T04:58:07;101.4;;;48.4;;
59653;SDS011;66556;52.008;5.432;2023-05-10T05:01:19;86.3;;;46.1;;
59653;SDS011;66556;52.008;5.432;2023-05-10T05:02:55;95.0;;;47.1;;
59653;SDS011;66556;52.008;5.432;2023-05-10T05:04:31;87.0;;;44.8;;
59653;SDS011;66556;52.008;5.432;2023-05-10T05:07:44;76.5;;;42.2;;
59653;SDS011;66556;52.008;5.432;2023-05-10T05:09:20;78.7;;;43.1;;
59653;SDS011;66556;52.008;5.432;2023-05-10T05:10:56;65.7;;;40.5;;
59653;SDS011;66556;52.008;5.432;2023-05-10T05:14:08;67.41;;;40.0;;
59653;SDS011;66556;52.008;5.432;2023-05-10T05:15:44;71.0;;;42.5;;
59653;SDS011;66556;52.008;5.432;2023-05-10T05:17:21;85.6;;;45.6;;
59653;SDS011;66556;52.008;5.432;2023-05-10T05:20:37;90.0;;;45.9;;
59653;SDS011;66556;52.008;5.432;2023-05-10T05:22:16;79.8;;;44.9;;
59653;SDS011;66556;52.008;5.432;2023-05-10T05:23:54;78.2;;;43.5;;
59653;SDS011;66556;52.008;5.432;2023-05-10T05:25:31;97.2;;;47.0;;
59653;SDS011;66556;52.008;5.432;2023-05-10T05:28:42;76.11;;;42.6;;
59653;SDS011;66556;52.008;5.432;2023-05-10T05:30:18;96.3;;;46.6;;
59653;SDS011;66556;52.008;5.432;2023-05-10T05:31:54;107.6;;;53.6;;
59653;SDS011;66556;52.008;5.432;2023-05-10T05:35:09;83.2;;;47.3;;
59653;SDS011;66556;52.008;5.432;2023-05-10T05:36:45;94.0;;;48.0;;
59653;SDS011;66556;52.008;5.432;2023-05-10T05:38:22;92.2;;;47.5;;
59653;SDS011;66556;52.008;5.432;2023-05-10T05:39:59;89.1;;;48.4;;
59653;SDS011;66556;52.008;5.432;2023-05-10T05:43:15;86.1;;;46.6;;
59653;SDS011;66556;52.008;5.432;2023-05-10T05:44:53;105.4;;;52.0;;
59653;SDS011;66556;52.008;5.432;2023-05-10T05:46:31;106.6;;;50.9;;
59653;SDS011;66556;52.008;5.432;2023-05-10T05:49:46;103.4;;;50.6;;
59653;SDS011;66556;52.008;5.432;2023-05-10T05:51:24;89.7;;;47.8;;
59653;SDS011;66556;52.008;5.432;2023-05-10T05:53:01;99.8;;;50.4;;
59653;SDS011;66556;52.008;5.432;2023-05-10T05:54:37;100.0;;;50.4;;
59653;SDS011;66556;52.008;5.432;2023-05-10T05:57:52;127.8;;;56.6;;
59653;SDS011;66556;52.008;5.432;2023-05-10T05:59:30;111.2;;;52.4;;
59653;SDS011;66556;52.008;5.432;2023-05-10T06:01:07;89.9;;;49.6;;
59653;SDS011;66556;52.008;5.432;2023-05-10T06:04:23;111.8;;;53.1;;
59653;SDS011;66556;52.008;5.432;2023-05-10T06:06:01;107.1;;;52.0;;
59653;SDS011;66556;52.008;5.432;2023-05-10T06:07:39;120.0;;;56.1;;
59653;SDS011;66556;52.008;5.432;2023-05-10T06:09:16;136.5;;;60.6;;
59653;SDS011;66556;52.008;5.432;2023-05-10T06:12:30;104.7;;;52.2;;
59653;SDS011;66556;52.008;5.432;2023-05-10T06:14:08;122.7;;;56.7;;
59653;SDS011;66556;52.008;5.432;2023-05-10T06:15:45;131.9;;;59.3;;
59653;SDS011;66556;52.008;5.432;2023-05-10T06:19:01;123.6;;;57.3;;
59653;SDS011;66556;52.008;5.432;2023-05-10T06:20:38;111.7;;;57.4;;
59653;SDS011;66556;52.008;5.432;2023-05-10T06:22:18;131.0;;;58.6;;
59653;SDS011;66556;52.008;5.432;2023-05-10T06:23:55;107.3;;;57.6;;
59653;SDS011;66556;52.008;5.432;2023-05-10T06:27:11;118.4;;;57.8;;
59653;SDS011;66556;52.008;5.432;2023-05-10T06:28:49;108.6;;;55.2;;
59653;SDS011;66556;52.008;5.432;2023-05-10T06:30:26;120.7;;;57.8;;
59653;SDS011;66556;52.008;5.432;2023-05-10T06:33:41;115.8;;;56.7;;
59653;SDS011;66556;52.008;5.432;2023-05-10T06:35:19;104.5;;;53.0;;
59653;SDS011;66556;52.008;5.432;2023-05-10T06:36:57;115.5;;;58.4;;
59653;SDS011;66556;52.008;5.432;2023-05-10T06:38:35;131.5;;;61.8;;
59653;SDS011;66556;52.008;5.432;2023-05-10T06:41:51;111.3;;;56.9;;
59653;SDS011;66556;52.008;5.432;2023-05-10T06:43:28;126.6;;;60.4;;
59653;SDS011;66556;52.008;5.432;2023-05-10T06:45:07;109.0;;;57.1;;
59653;SDS011;66556;52.008;5.432;2023-05-10T06:48:21;123.8;;;58.9;;
59653;SDS011;66556;52.008;5.432;2023-05-10T06:49:58;98.9;;;54.6;;
59653;SDS011;66556;52.008;5.432;2023-05-10T06:51:35;107.2;;;57.5;;
59653;SDS011;66556;52.008;5.432;2023-05-10T06:53:11;111.3;;;57.8;;
59653;SDS011;66556;52.008;5.432;2023-05-10T06:56:26;106.3;;;53.4;;
59653;SDS011;66556;52.008;5.432;2023-05-10T06:58:03;122.1;;;58.4;;
59653;SDS011;66556;52.008;5.432;2023-05-10T06:59:40;121.9;;;59.0;;
59653;SDS011;66556;52.008;5.432;2023-05-10T07:02:56;130.7;;;60.8;;
59653;SDS011;66556;52.008;5.432;2023-05-10T07:04:32;115.6;;;57.8;;
59653;SDS011;66556;52.008;5.432;2023-05-10T07:06:08;99.5;;;52.3;;
59653;SDS011;66556;52.008;5.432;2023-05-10T07:09:23;88.4;;;49.5;;
59653;SDS011;66556;52.008;5.432;2023-05-10T07:11:01;79.5;;;46.2;;
59653;SDS011;66556;52.008;5.432;2023-05-10T07:12:40;84.7;;;45.7;;
59653;SDS011;66556;52.008;5.432;2023-05-10T07:14:18;77.41;;;43.3;;
59653;SDS011;66556;52.008;5.432;2023-05-10T07:17:33;63.8;;;38.5;;
59653;SDS011;66556;52.008;5.432;2023-05-10T07:19:11;65.3;;;39.0;;
59653;SDS011;66556;52.008;5.432;2023-05-10T07:20:48;68.3;;;39.21;;
59653;SDS011;66556;52.008;5.432;2023-05-10T07:22:26;60.6;;;36.6;;
59653;SDS011;66556;52.008;5.432;2023-05-10T07:25:41;67.3;;;38.5;;
59653;SDS011;66556;52.008;5.432;2023-05-10T07:27:19;56.3;;;34.1;;
59653;SDS011;66556;52.008;5.432;2023-05-10T07:28:56;52.6;;;31.2;;
59653;SDS011;66556;52.008;5.432;2023-05-10T07:32:11;56.4;;;32.21;;
59653;SDS011;66556;52.008;5.432;2023-05-10T07:33:47;54.9;;;30.1;;
59653;SDS011;66556;52.008;5.432;2023-05-10T07:35:25;47.7;;;27.4;;
59653;SDS011;66556;52.008;5.432;2023-05-10T07:38:40;38.4;;;23.6;;
59653;SDS011;66556;52.008;5.432;2023-05-10T07:40:18;37.31;;;22.7;;
59653;SDS011;66556;52.008;5.432;2023-05-10T07:41:56;31.9;;;20.5;;
59653;SDS011;66556;52.008;5.432;2023-05-10T07:43:33;31.2;;;20.6;;
59653;SDS011;66556;52.008;5.432;2023-05-10T07:46:48;25.9;;;17.2;;
59653;SDS011;66556;52.008;5.432;2023-05-10T07:48:26;25.8;;;16.4;;
59653;SDS011;66556;52.008;5.432;2023-05-10T07:50:03;20.41;;;14.8;;
59653;SDS011;66556;52.008;5.432;2023-05-10T07:53:18;21.1;;;13.8;;
59653;SDS011;66556;52.008;5.432;2023-05-10T07:54:55;17.61;;;13.4;;
59653;SDS011;66556;52.008;5.432;2023-05-10T07:56:32;20.6;;;14.5;;
59653;SDS011;66556;52.008;5.432;2023-05-10T07:58:09;18.61;;;12.9;;
59653;SDS011;66556;52.008;5.432;2023-05-10T08:01:24;18.91;;;12.9;;
59653;SDS011;66556;52.008;5.432;2023-05-10T08:03:03;16.3;;;12.1;;
59653;SDS011;66556;52.008;5.432;2023-05-10T08:04:39;17.5;;;12.4;;
59653;SDS011;66556;52.008;5.432;2023-05-10T08:07:55;15.9;;;11.6;;
59653;SDS011;66556;52.008;5.432;2023-05-10T08:09:33;16.0;;;11.8;;
59653;SDS011;66556;52.008;5.432;2023-05-10T08:11:10;17.11;;;12.0;;
59653;SDS011;66556;52.008;5.432;2023-05-10T08:12:48;18.0;;;12.7;;
59653;SDS011;66556;52.008;5.432;2023-05-10T08:16:04;18.2;;;12.8;;
59653;SDS011;66556;52.008;5.432;2023-05-10T08:17:42;16.61;;;12.6;;
59653;SDS011;66556;52.008;5.432;2023-05-10T08:19:20;16.9;;;12.9;;
59653;SDS011;66556;52.008;5.432;2023-05-10T08:22:35;22.6;;;13.8;;
59653;SDS011;66556;52.008;5.432;2023-05-10T08:24:13;24.7;;;15.2;;
59653;SDS011;66556;52.008;5.432;2023-05-10T08:25:50;19.11;;;12.9;;
59653;SDS011;66556;52.008;5.432;2023-05-10T08:27:26;19.0;;;12.4;;
59653;SDS011;66556;52.008;5.432;2023-05-10T08:30:40;17.5;;;12.6;;
59653;SDS011;66556;52.008;5.432;2023-05-10T08:32:18;18.0;;;12.8;;
59653;SDS011;66556;52.008;5.432;2023-05-10T08:33:55;17.41;;;12.2;;
59653;SDS011;66556;52.008;5.432;2023-05-10T08:37:11;19.7;;;13.0;;
59653;SDS011;66556;52.008;5.432;2023-05-10T08:38:49;17.91;;;12.5;;
59653;SDS011;66556;52.008;5.432;2023-05-10T08:42:06;19.5;;;13.0;;
59653;SDS011;66556;52.008;5.432;2023-05-10T08:45:25;14.8;;;11.4;;
59653;SDS011;66556;52.008;5.432;2023-05-10T08:47:08;14.8;;;11.4;;
59653;SDS011;66556;52.008;5.432;2023-05-10T08:48:48;17.8;;;12.6;;
59653;SDS011;66556;52.008;5.432;2023-05-10T08:50:27;18.3;;;12.6;;
59653;SDS011;66556;52.008;5.432;2023-05-10T08:53:44;14.9;;;11.4;;
59653;SDS011;66556;52.008;5.432;2023-05-10T08:55:22;19.41;;;12.4;;
59653;SDS011;66556;52.008;5.432;2023-05-10T08:57:00;17.8;;;12.2;;
59653;SDS011;66556;52.008;5.432;2023-05-10T08:58:38;15.6;;;11.7;;
59653;SDS011;66556;52.008;5.432;2023-05-10T09:01:55;17.3;;;12.4;;
59653;SDS011;66556;52.008;5.432;2023-05-10T09:03:34;18.0;;;12.0;;
59653;SDS011;66556;52.008;5.432;2023-05-10T09:05:12;16.8;;;11.6;;
59653;SDS011;66556;52.008;5.432;2023-05-10T09:08:26;18.8;;;12.4;;
59653;SDS011;66556;52.008;5.432;2023-05-10T09:10:05;18.5;;;13.4;;
59653;SDS011;66556;52.008;5.432;2023-05-10T09:11:44;18.5;;;12.3;;
59653;SDS011;66556;52.008;5.432;2023-05-10T09:13:21;19.0;;;12.6;;
59653;SDS011;66556;52.008;5.432;2023-05-10T09:16:39;17.5;;;12.9;;
59653;SDS011;66556;52.008;5.432;2023-05-10T09:18:18;20.2;;;13.1;;
59653;SDS011;66556;52.008;5.432;2023-05-10T09:19:57;17.8;;;13.0;;
59653;SDS011;66556;52.008;5.432;2023-05-10T09:23:13;16.3;;;12.2;;
59653;SDS011;66556;52.008;5.432;2023-05-10T09:25:03;17.3;;;12.0;;
59653;SDS011;66556;52.008;5.432;2023-05-10T09:26:45;17.3;;;13.1;;
59653;SDS011;66556;52.008;5.432;2023-05-10T09:28:24;16.4;;;13.5;;
59653;SDS011;66556;52.008;5.432;2023-05-10T09:30:02;21.5;;;13.4;;
59653;SDS011;66556;52.008;5.432;2023-05-10T09:33:23;19.2;;;13.2;;
59653;SDS011;66556;52.008;5.432;2023-05-10T09:35:05;17.5;;;12.6;;
59653;SDS011;66556;52.008;5.432;2023-05-10T09:36:52;17.91;;;12.2;;
59653;SDS011;66556;52.008;5.432;2023-05-10T09:38:35;17.3;;;12.8;;
59653;SDS011;66556;52.008;5.432;2023-05-10T09:43:42;18.0;;;12.9;;
59653;SDS011;66556;52.008;5.432;2023-05-10T09:45:19;19.0;;;13.3;;
59653;SDS011;66556;52.008;5.432;2023-05-10T09:46:57;15.8;;;12.1;;
59653;SDS011;66556;52.008;5.432;2023-05-10T09:50:19;16.11;;;11.9;;
59653;SDS011;66556;52.008;5.432;2023-05-10T09:51:59;17.91;;;13.0;;
59653;SDS011;66556;52.008;5.432;2023-05-10T09:53:38;17.0;;;12.7;;
59653;SDS011;66556;52.008;5.432;2023-05-10T09:55:16;19.2;;;12.9;;
59653;SDS011;66556;52.008;5.432;2023-05-10T09:58:35;14.2;;;11.5;;
59653;SDS011;66556;52.008;5.432;2023-05-10T10:00:16;15.5;;;11.5;;
59653;SDS011;66556;52.008;5.432;2023-05-10T10:01:56;15.5;;;12.3;;
59653;SDS011;66556;52.008;5.432;2023-05-10T10:03:40;15.3;;;12.3;;
59653;SDS011;66556;52.008;5.432;2023-05-10T10:06:58;17.5;;;12.6;;
59653;SDS011;66556;52.008;5.432;2023-05-10T10:10:15;19.91;;;13.6;;
59653;SDS011;66556;52.008;5.432;2023-05-10T10:11:53;18.3;;;12.8;;
59653;SDS011;66556;52.008;5.432;2023-05-10T10:15:09;15.9;;;11.8;;
59653;SDS011;66556;52.008;5.432;2023-05-10T10:16:47;17.5;;;11.9;;
59653;SDS011;66556;52.008;5.432;2023-05-10T10:18:26;15.6;;;11.8;;
59653;SDS011;66556;52.008;5.432;2023-05-10T10:21:43;15.5;;;11.7;;
59653;SDS011;66556;52.008;5.432;2023-05-10T10:23:20;14.4;;;10.4;;
59653;SDS011;66556;52.008;5.432;2023-05-10T10:24:58;12.6;;;10.0;;
59653;SDS011;66556;52.008;5.432;2023-05-10T10:26:36;14.7;;;11.5;;
59653;SDS011;66556;52.008;5.432;2023-05-10T10:30:06;17.8;;;11.5;;
59653;SDS011;66556;52.008;5.432;2023-05-10T10:31:55;15.6;;;11.8;;
59653;SDS011;66556;52.008;5.432;2023-05-10T10:33:54;15.6;;;11.3;;
59653;SDS011;66556;52.008;5.432;2023-05-10T10:35:36;16.11;;;11.0;;
59653;SDS011;66556;52.008;5.432;2023-05-10T10:37:14;35.1;;;16.7;;
59653;SDS011;66556;52.008;5.432;2023-05-10T10:40:33;17.3;;;11.4;;
59653;SDS011;66556;52.008;5.432;2023-05-10T10:42:11;14.1;;;11.2;;
59653;SDS011;66556;52.008;5.432;2023-05-10T10:43:48;14.5;;;10.5;;
59653;SDS011;66556;52.008;5.432;2023-05-10T10:45:26;21.9;;;12.0;;
59653;SDS011;66556;52.008;5.432;2023-05-10T10:48:47;16.61;;;11.1;;
59653;SDS011;66556;52.008;5.432;2023-05-10T10:50:25;15.9;;;11.5;;
59653;SDS011;66556;52.008;5.432;2023-05-10T10:52:20;13.7;;;10.7;;
59653;SDS011;66556;52.008;5.432;2023-05-10T10:54:08;15.6;;;11.7;;
59653;SDS011;66556;52.008;5.432;2023-05-10T10:57:25;16.4;;;12.2;;
59653;SDS011;66556;52.008;5.432;2023-05-10T10:59:03;18.11;;;12.8;;
59653;SDS011;66556;52.008;5.432;2023-05-10T11:00:39;16.61;;;12.1;;
59653;SDS011;66556;52.008;5.432;2023-05-10T11:02:48;14.6;;;11.8;;
59653;SDS011;66556;52.008;5.432;2023-05-10T11:04:26;14.3;;;10.6;;
59653;SDS011;66556;52.008;5.432;2023-05-10T11:07:50;12.6;;;10.0;;
59653;SDS011;66556;52.008;5.432;2023-05-10T11:09:26;12.5;;;10.3;;
59653;SDS011;66556;52.008;5.432;2023-05-10T11:11:03;11.6;;;10.0;;
59653;SDS011;66556;52.008;5.432;2023-05-10T11:12:50;11.6;;;9.9;;
59653;SDS011;66556;52.008;5.432;2023-05-10T11:16:11;14.8;;;9.71;;
59653;SDS011;66556;52.008;5.432;2023-05-10T11:17:50;13.2;;;9.71;;
59653;SDS011;66556;52.008;5.432;2023-05-10T11:19:27;10.6;;;8.81;;
59653;SDS011;66556;52.008;5.432;2023-05-10T11:21:03;13.4;;;9.5;;
59653;SDS011;66556;52.008;5.432;2023-05-10T11:24:31;11.4;;;8.81;;
59653;SDS011;66556;52.008;5.432;2023-05-10T11:26:07;12.0;;;9.31;;
59653;SDS011;66556;52.008;5.432;2023-05-10T11:27:44;12.1;;;9.1;;
59653;SDS011;66556;52.008;5.432;2023-05-10T11:29:23;12.3;;;9.0;;
59653;SDS011;66556;52.008;5.432;2023-05-10T11:32:36;11.5;;;8.5;;
59653;SDS011;66556;52.008;5.432;2023-05-10T11:34:22;13.7;;;9.0;;
59653;SDS011;66556;52.008;5.432;2023-05-10T11:36:00;11.5;;;8.6;;
59653;SDS011;66556;52.008;5.432;2023-05-10T11:39:12;11.2;;;8.2;;
59653;SDS011;66556;52.008;5.432;2023-05-10T11:40:50;12.9;;;9.71;;
59653;SDS011;66556;52.008;5.432;2023-05-10T11:42:27;10.9;;;8.31;;
59653;SDS011;66556;52.008;5.432;2023-05-10T11:44:04;13.1;;;9.71;;
59653;SDS011;66556;52.008;5.432;2023-05-10T11:47:18;10.7;;;7.7;;
59653;SDS011;66556;52.008;5.432;2023-05-10T11:48:55;10.1;;;8.31;;
59653;SDS011;66556;52.008;5.432;2023-05-10T11:50:34;11.5;;;8.81;;
59653;SDS011;66556;52.008;5.432;2023-05-10T11:53:47;11.8;;;8.31;;
59653;SDS011;66556;52.008;5.432;2023-05-10T11:55:25;10.1;;;7.5;;
59653;SDS011;66556;52.008;5.432;2023-05-10T11:57:01;10.5;;;7.5;;
59653;SDS011;66556;52.008;5.432;2023-05-10T11:58:37;9.5;;;7.1;;
59653;SDS011;66556;52.008;5.432;2023-05-10T12:01:51;8.31;;;6.8;;
59653;SDS011;66556;52.008;5.432;2023-05-10T12:03:27;8.9;;;6.7;;
59653;SDS011;66556;52.008;5.432;2023-05-10T12:05:05;7.7;;;6.1;;
59653;SDS011;66556;52.008;5.432;2023-05-10T12:08:20;7.7;;;5.3;;
59653;SDS011;66556;52.008;5.432;2023-05-10T12:10:06;7.1;;;5.0;;
59653;SDS011;66556;52.008;5.432;2023-05-10T12:11:43;6.1;;;4.7;;
59653;SDS011;66556;52.008;5.432;2023-05-10T12:13:19;7.6;;;5.2;;
59653;SDS011;66556;52.008;5.432;2023-05-10T12:16:33;7.2;;;5.3;;
59653;SDS011;66556;52.008;5.432;2023-05-10T12:18:09;6.4;;;5.3;;
59653;SDS011;66556;52.008;5.432;2023-05-10T12:19:46;8.31;;;5.6;;
59653;SDS011;66556;52.008;5.432;2023-05-10T12:22:58;8.6;;;5.9;;
59653;SDS011;66556;52.008;5.432;2023-05-10T12:24:34;8.9;;;5.7;;
59653;SDS011;66556;52.008;5.432;2023-05-10T12:26:11;8.2;;;6.3;;
59653;SDS011;66556;52.008;5.432;2023-05-10T12:27:50;8.9;;;6.0;;
59653;SDS011;66556;52.008;5.432;2023-05-10T12:31:06;7.9;;;5.6;;
59653;SDS011;66556;52.008;5.432;2023-05-10T12:32:43;11.1;;;5.0;;
59653;SDS011;66556;52.008;5.432;2023-05-10T12:34:23;7.0;;;4.61;;
59653;SDS011;66556;52.008;5.432;2023-05-10T12:37:37;6.7;;;4.91;;
59653;SDS011;66556;52.008;5.432;2023-05-10T12:39:14;7.3;;;4.8;;
59653;SDS011;66556;52.008;5.432;2023-05-10T12:40:50;9.21;;;5.7;;
59653;SDS011;66556;52.008;5.432;2023-05-10T12:44:02;9.21;;;5.3;;
59653;SDS011;66556;52.008;5.432;2023-05-10T12:45:38;7.3;;;5.11;;
59653;SDS011;66556;52.008;5.432;2023-05-10T12:47:14;18.2;;;8.1;;
59653;SDS011;66556;52.008;5.432;2023-05-10T12:48:50;18.2;;;8.1;;
59653;SDS011;66556;52.008;5.432;2023-05-10T12:52:03;421.7;;;93.0;;